WetterOnline ( https://www.wetteronline.de )

Wetter aktuell Andernach

Aktuelles Wetter: Andernach (75m)

6-stündlich | Neueste Meldungen
Ortszeit Temperatur Wetter
Sa, 18.05. 8:00 15.0° C bedeckt
Sa, 18.05. 2:00 13.9° C wolkig
Fr, 17.05. 20:00 15.9° C bedeckt
Fr, 17.05. 14:00 15.7° C leichter Regen
Fr, 17.05. 8:00 14.7° C Sprühregen
Fr, 17.05. 2:00 13.8° C wolkig
Do, 16.05. 20:00 17.9° C wolkig
Do, 16.05. 14:00 19.1° C bewölkt
Ortszeit Temperatur Wetter
Sa, 18.05. 13:00 15.1° C Regen
Sa, 18.05. 12:40 15.7° C Sprühregen
Sa, 18.05. 12:30 15.7° C leichter Regen
Sa, 18.05. 12:20 15.7° C leichter Regen
Sa, 18.05. 12:10 15.4° C leichter Regen
Sa, 18.05. 12:00 15.3° C Regen
Sa, 18.05. 11:50 15.3° C Regen
Sa, 18.05. 11:30 16.2° C Sprühregen
Sa, 18.05. 11:00 15.6° C leichter Regen
Sa, 18.05. 10:30 15.6° C leichter Regen
Sa, 18.05. 10:00 15.3° C leichter Regen
Ortszeit Relative Feuchte Sichtweite
Sa, 18.05. 8:00 92% 13 km
Sa, 18.05. 2:00 98% 10 km
Fr, 17.05. 20:00 89% 30 km
Fr, 17.05. 14:00 90% 8 km
Fr, 17.05. 8:00 90% 9 km
Fr, 17.05. 2:00 96% 11 km
Do, 16.05. 20:00 76% 65 km
Do, 16.05. 14:00 66% 50 km
Ortszeit Relative Feuchte Sichtweite
Sa, 18.05. 13:00 93% 8 km
Sa, 18.05. 12:40 91% -
Sa, 18.05. 12:30 91% 5.0 km
Sa, 18.05. 12:20 91% -
Sa, 18.05. 12:10 93% -
Sa, 18.05. 12:00 92% 2.8 km
Sa, 18.05. 11:50 92% -
Sa, 18.05. 11:30 89% 8 km
Sa, 18.05. 11:00 90% 4.2 km
Sa, 18.05. 10:30 90% 5.0 km
Sa, 18.05. 10:00 92% 4.9 km
Ortszeit Niederschlagsmenge Niederschlagsart
Sa, 18.05. 8:00 0.1 l/m2 in 12 Std. -
Sa, 18.05. 2:00 0.1 l/m2 in 6 Std. Regen
Fr, 17.05. 20:00 5 l/m2 in 12 Std. Regen
Fr, 17.05. 14:00 0.2 l/m2 in 6 Std. Regen
Fr, 17.05. 8:00 0.1 l/m2 in 12 Std. Regen
Fr, 17.05. 2:00 0.0 l/m2 in 6 Std. -
Do, 16.05. 20:00 0.1 l/m2 in 12 Std. Regen
Do, 16.05. 14:00 0.1 l/m2 in 6 Std. Regen
Ortszeit Niederschlagsmenge Niederschlagsart
Sa, 18.05. 13:00 0.4 l/m2 in 1 Std. Regen
Sa, 18.05. 12:40 keine Meldung -
Sa, 18.05. 12:30 0.3 l/m2 in 30 Min -
Sa, 18.05. 12:20 keine Meldung -
Sa, 18.05. 12:10 keine Meldung -
Sa, 18.05. 12:00 0.3 l/m2 in 1 Std. Regen
Sa, 18.05. 11:50 keine Meldung -
Sa, 18.05. 11:30 0.1 l/m2 in 30 Min -
Sa, 18.05. 11:00 0.9 l/m2 in 1 Std. Regen
Sa, 18.05. 10:30 0.2 l/m2 in 30 Min -
Sa, 18.05. 10:00 1.1 l/m2 in 1 Std. Regen
Ortszeit Stärke Spitze Richtung
km/h Bft. km/h Grad Sektor
Sa, 18.05. 8:00 4 1 7 100° O
Sa, 18.05. 2:00 4 1 14 180° S
Fr, 17.05. 20:00 6 1 20 310° NW
Fr, 17.05. 14:00 11 2 29 310° NW
Fr, 17.05. 8:00 11 2 36 340° N
Fr, 17.05. 2:00 11 2 25 320° NW
Do, 16.05. 20:00 13 3 33 320° NW
Do, 16.05. 14:00 7 2 29 150° SO
Ortszeit Stärke Spitze Richtung
km/h Bft. km/h Grad Sektor
Sa, 18.05. 13:00 14 3 22 200° S
Sa, 18.05. 12:40 9 2 - 170° S
Sa, 18.05. 12:30 2 1 9 240° SW
Sa, 18.05. 12:20 2 1 - 240° SW
Sa, 18.05. 12:10 4 1 - 280° W
Sa, 18.05. 12:00 7 2 14 320° NW
Sa, 18.05. 11:50 7 2 - 320° NW
Sa, 18.05. 11:30 6 1 11 320° NW
Sa, 18.05. 11:00 6 1 7 320° NW
Sa, 18.05. 10:30 4 1 7 280° W
Sa, 18.05. 10:00 4 1 7 230° SW
Ortszeit Untergrenze Bedeckung Gattung
total tief tief mittel hoch
Sa, 18.05. 8:00 120 m 8/8 8/8 - - -
Sa, 18.05. 2:00 2100 m 8/8 1/8 - - -
Fr, 17.05. 20:00 1440 m 8/8 8/8 - - -
Fr, 17.05. 14:00 840 m 8/8 8/8 - - -
Fr, 17.05. 8:00 330 m 7/8 7/8 - - -
Fr, 17.05. 2:00 150 m 8/8 1/8 - - -
Do, 16.05. 20:00 3600 m 6/8 6/8 - - -
Do, 16.05. 14:00 1260 m 8/8 7/8 - - -
Ortszeit Bedeckungsgrad in Achtel und Wolkenuntergrenze
Sa, 18.05. 13:00 5(450m) 6(600m) 8(780m)
Sa, 18.05. 12:40 8
Sa, 18.05. 12:30 1(780m) 7(990m) 8(1500m)
Sa, 18.05. 12:20 1(780m) 7(990m) 8(1500m)
Sa, 18.05. 12:10 7
Sa, 18.05. 12:00 1(300m) 7(1500m) 8(1800m)
Sa, 18.05. 11:50 1(300m) 7(1500m) 8(1800m)
Sa, 18.05. 11:30 2(330m) 8(1500m) 8(2400m)
Sa, 18.05. 11:00 2(270m) 8(1800m) 8(2100m)
Sa, 18.05. 10:30 3(210m) 8(1800m) 8(2700m)
Sa, 18.05. 10:00 1(180m) 6(360m) 7(570m)
Ortszeit Luftdruck NN (hPa) Tendenz (hPa in 3 Std.)
Sa, 18.05. 8:00 1010 + 1,0
Sa, 18.05. 2:00 1008 + 0,6
Fr, 17.05. 20:00 1007 + 0,4
Fr, 17.05. 14:00 1006 + 0,5
Fr, 17.05. 8:00 1005 + 0,2
Fr, 17.05. 2:00 1006 - 0,7
Do, 16.05. 20:00 1005 + 0,5
Do, 16.05. 14:00 1005 + 0,3
Ortszeit Luftdruck NN (hPa) Tendenz (hPa in 3 Std.)
Sa, 18.05. 13:00 1011 + 0,4
Sa, 18.05. 12:40 1011 keine Meldung
Sa, 18.05. 12:30 1011 + 0,5
Sa, 18.05. 12:20 1011 keine Meldung
Sa, 18.05. 12:10 1011 keine Meldung
Sa, 18.05. 12:00 1011 + 0,7
Sa, 18.05. 11:50 1011 keine Meldung
Sa, 18.05. 11:30 1011 + 0,7
Sa, 18.05. 11:00 1011 + 0,8
Sa, 18.05. 10:30 1011 + 0,8
Sa, 18.05. 10:00 1010 + 0,9
Ortszeit Schneehöhe (cm)
Sa, 18.05. 8:00 0
Sa, 18.05. 2:00 0
Fr, 17.05. 20:00 0
Fr, 17.05. 14:00 0
Fr, 17.05. 8:00 0
Fr, 17.05. 2:00 0
Do, 16.05. 20:00 0
Do, 16.05. 14:00 0
Ortszeit Schneehöhe (cm)
Sa, 18.05. 13:00 0
Sa, 18.05. 12:40 -
Sa, 18.05. 12:30 0
Sa, 18.05. 12:20 0
Sa, 18.05. 12:10 -
Sa, 18.05. 12:00 0
Sa, 18.05. 11:50 0
Sa, 18.05. 11:30 0
Sa, 18.05. 11:00 0
Sa, 18.05. 10:30 0
Sa, 18.05. 10:00 0
Link zu dieser Seite / Seite empfehlen

Das Wetter in ...